TAF AMD LFBP 071510Z 0715/0812 VRB04KT CAVOK
TEMPO 0715/0718 SCT085TCU
TEMPO 0715/0718 -TSRA SCT080CB
BECMG 0718/0720 BKN080
From batch tds/tafs/production/2023/6/7/h15_m19_tafs.cache.xml
Issued (12 months ago)
Forecasts
0715/0718 VRB04KT P6SM NSC

---
wx_string: NSW
fcst_time_to: '2023-06-07T18:00:00Z'
sky_condition:
- sky_cover: NSC
wind_speed_kt: '4'
fcst_time_from: '2023-06-07T15:00:00Z'
wind_dir_degrees: '0'
visibility_statute_mi: '6.21'

TEMPO 0715/0718 SCTTCU8500

---
fcst_time_to: '2023-06-07T18:00:00Z'
sky_condition:
- sky_cover: SCT
  cloud_type: TCU
  cloud_base_ft_agl: '8500'
fcst_time_from: '2023-06-07T15:00:00Z'
change_indicator: TEMPO

TEMPO 0715/0718 SCTCB8000

---
wx_string: "-TSRA"
fcst_time_to: '2023-06-07T18:00:00Z'
sky_condition:
- sky_cover: SCT
  cloud_type: CB
  cloud_base_ft_agl: '8000'
fcst_time_from: '2023-06-07T15:00:00Z'
change_indicator: TEMPO

BECMG 0720/0812 VRB04KT P6SM BKN8000

---
wx_string: NSW
fcst_time_to: '2023-06-08T12:00:00Z'
sky_condition:
- sky_cover: BKN
  cloud_base_ft_agl: '8000'
time_becoming: '2023-06-07T20:00:00Z'
wind_speed_kt: '4'
fcst_time_from: '2023-06-07T18:00:00Z'
change_indicator: BECMG
wind_dir_degrees: '0'
visibility_statute_mi: '6.21'

talk